地図

経路データ

SID SEASON NUMBER BASIN SUBBASIN NAME ISO_TIME NATURE LAT LON WMO_WIND WMO_PRES WMO_AGENCY TRACK_TYPE DIST2LAND LANDFALL IFLAG USA_AGENCY USA_ATCF_ID USA_LAT USA_LON USA_RECORD USA_STATUS USA_WIND USA_PRES USA_SSHS USA_R34_NE USA_R34_SE USA_R34_SW USA_R34_NW USA_R50_NE USA_R50_SE USA_R50_SW USA_R50_NW USA_R64_NE USA_R64_SE USA_R64_SW USA_R64_NW USA_POCI USA_ROCI USA_RMW USA_EYE TOKYO_LAT TOKYO_LON TOKYO_GRADE TOKYO_WIND TOKYO_PRES TOKYO_R50_DIR TOKYO_R50_LONG TOKYO_R50_SHORT TOKYO_R30_DIR TOKYO_R30_LONG TOKYO_R30_SHORT TOKYO_LAND CMA_LAT CMA_LON CMA_CAT CMA_WIND CMA_PRES HKO_LAT HKO_LON HKO_CAT HKO_WIND HKO_PRES NEWDELHI_LAT NEWDELHI_LON NEWDELHI_GRADE NEWDELHI_WIND NEWDELHI_PRES NEWDELHI_CI NEWDELHI_DP NEWDELHI_POCI REUNION_LAT REUNION_LON REUNION_TYPE REUNION_WIND REUNION_PRES REUNION_TNUM REUNION_CI REUNION_RMW REUNION_R34_NE REUNION_R34_SE REUNION_R34_SW REUNION_R34_NW REUNION_R50_NE REUNION_R50_SE REUNION_R50_SW REUNION_R50_NW REUNION_R64_NE REUNION_R64_SE REUNION_R64_SW REUNION_R64_NW BOM_LAT BOM_LON BOM_TYPE BOM_WIND BOM_PRES BOM_TNUM BOM_CI BOM_RMW BOM_R34_NE BOM_R34_SE BOM_R34_SW BOM_R34_NW BOM_R50_NE BOM_R50_SE BOM_R50_SW BOM_R50_NW BOM_R64_NE BOM_R64_SE BOM_R64_SW BOM_R64_NW BOM_ROCI BOM_POCI BOM_EYE BOM_POS_METHOD BOM_PRES_METHOD NADI_LAT NADI_LON NADI_CAT NADI_WIND NADI_PRES WELLINGTON_LAT WELLINGTON_LON WELLINGTON_WIND WELLINGTON_PRES DS824_LAT DS824_LON DS824_STAGE DS824_WIND DS824_PRES TD9636_LAT TD9636_LON TD9636_STAGE TD9636_WIND TD9636_PRES TD9635_LAT TD9635_LON TD9635_WIND TD9635_PRES TD9635_ROCI NEUMANN_LAT NEUMANN_LON NEUMANN_CLASS NEUMANN_WIND NEUMANN_PRES MLC_LAT MLC_LON MLC_CLASS MLC_WIND MLC_PRES USA_GUST BOM_GUST BOM_GUST_PER REUNION_GUST REUNION_GUST_PER USA_SEAHGT USA_SEARAD_NE USA_SEARAD_SE USA_SEARAD_SW USA_SEARAD_NW STORM_SPEED STORM_DIR
1971337S07125 1972 158 SI WA SALLY 1971-12-03 00:00:00 TS -7.00000 125.000 main 133 123 O________OO___ jtwc_sh SH061972 -7.00000 125.000 20 -1 -7.00000 125.000 TC 20 -7.00000 125.000 1 6 216
1971337S07125 1972 158 SI WA SALLY 1971-12-03 01:00:00 TS -7.07143 124.943 1004 bom main 123 112 P_____O__PP___ SH061972 -7.08333 124.972 19 -1 -7.00000 124.800 1004 -7.08333 124.972 TC 19 -7.08335 124.956 1 5 208
1971337S07125 1972 158 SI WA SALLY 1971-12-03 03:00:00 TS -7.23615 124.872 main 112 78 P_____P__PP___ SH061972 -7.25000 124.913 17 -1 -7.17377 124.760 -7.25000 124.913 TC 17 -7.25006 124.867 1 5 204
1971337S07125 1972 158 SI WA SALLY 1971-12-03 06:00:00 TS -7.47510 124.759 main 78 56 O_____P__OP_O_ jtwc_sh SH061972 -7.50000 124.800 15 -1 -7.43377 124.695 -7.50000 124.800 TC 15 -7.50008 124.738 1 -7.30000 124.700 TC 20 1004 5 206
1971337S07125 1972 158 SI WA SALLY 1971-12-03 09:00:00 TS -7.71493 124.631 main 56 33 P_____P__PP_P_ SH061972 -7.75001 124.650 17 -1 -7.69210 124.621 -7.75001 124.650 TC 17 -7.75006 124.614 1 -7.55000 124.613 TC 20 1004 5 208
1971337S07125 1972 158 SI WA SALLY 1971-12-03 12:00:00 TS -7.95742 124.506 main 22 11 O_____P__OO_O_ jtwc_sh SH061972 -8.00000 124.500 20 -1 -7.94776 124.530 -8.00000 124.500 TC 20 -8.00000 124.500 1 -7.80000 124.500 TC 20 1004 5 206
1971337S07125 1972 158 SI WA SALLY 1971-12-03 15:00:00 TS -8.19993 124.392 main 11 0 P_____P__PP_P_ SH061972 -8.24998 124.400 32 -1 -8.19973 124.417 -8.24998 124.400 TC 32 -8.24993 124.395 1 -8.05001 124.350 TC 22 1004 5 205
1971337S07125 1972 158 SI WA SALLY 1971-12-03 18:00:00 TS -8.44938 124.273 main 0 0 O_____P__OP_O_ jtwc_sh SH061972 -8.50000 124.300 45 0 -8.44702 124.276 -8.50000 124.300 TC 45 -8.49989 124.287 1 -8.30000 124.200 TC 25 1004 6 206
1971337S07125 1972 158 SI WA SALLY 1971-12-03 21:00:00 TS -8.69768 124.144 main 39 39 P_____P__PP_P_ SH061972 -8.74998 124.172 55 0 -8.68859 124.099 -8.74998 124.172 TC 55 -8.74990 124.161 1 -8.54996 124.115 TC 22 1004 6 211
1971337S07125 1972 158 SI WA SALLY 1971-12-04 00:00:00 TS -8.94255 123.968 main 44 33 O_____P__OO_O_ jtwc_sh SH061972 -9.00000 124.000 65 1 -8.92341 123.882 -9.00000 124.000 TC 65 -9.00000 124.000 1 -8.80000 124.000 TC 20 1004 6 218
1971337S07125 1972 158 SI WA SALLY 1971-12-04 01:00:00 TS -9.02206 123.887 1004 bom main 35 31 P_____O__PP_P_ SH061972 -9.08334 123.928 61 0 -9.00000 123.800 1004 -9.08334 123.928 TC 61 -9.08335 123.933 1 -8.88596 123.936 TC 20 1003 7 226
1971337S07125 1972 158 SI WA SALLY 1971-12-04 03:00:00 TS -9.18134 123.715 main 31 31 P_____P__PP_P_ SH061972 -9.25001 123.765 55 0 -9.15070 123.620 1003 -9.25001 123.765 TC 55 -9.25004 123.786 1 -9.05750 123.780 TC 22 1003 7 228
1971337S07125 1972 158 SI WA SALLY 1971-12-04 06:00:00 TS -9.41720 123.436 main 39 34 O_____P__OP_O_ jtwc_sh SH061972 -9.50000 123.500 45 0 -9.37306 123.322 1003 -9.50000 123.500 TC 45 -9.50006 123.537 1 -9.30000 123.500 TC 25 1003 7 229
1971337S07125 1972 158 SI WA SALLY 1971-12-04 09:00:00 TS -9.65048 123.160 main 54 54 P_____P__PP_P_ SH061972 -9.74998 123.250 32 -1 -9.59531 123.008 1003 -9.74998 123.250 TC 32 -9.75003 123.270 1 -9.50001 123.200 TC 25 1003 7 229
1971337S07125 1972 158 SI WA SALLY 1971-12-04 12:00:00 TS -9.88706 122.883 main 73 73 O_____P__OO_O_ jtwc_sh SH061972 -10.0000 123.000 20 -1 -9.82238 122.699 1003 -10.0000 123.000 TC 20 -10.0000 123.000 1 -9.70000 122.900 TC 25 1003 7 228
1971337S07125 1972 158 SI WA SALLY 1971-12-04 13:00:00 TS -9.96957 122.793 1003 bom main 79 79 P_____O__PP_P_ SH061972 -10.0833 122.917 20 -1 -9.90000 122.600 1003 -10.0833 122.917 TC 20 -10.0883 122.909 1 -9.77760 122.811 TC 25 1002 7 226
1971337S07125 1972 158 SI WA SALLY 1971-12-04 15:00:00 TS -10.1399 122.615 main 99 98 P_____P__PP_P_ SH061972 -10.2500 122.750 20 -1 -10.0714 122.404 1002 -10.2500 122.750 TC 20 -10.2663 122.726 1 -9.94246 122.642 TC 25 1002 7 225
1971337S07125 1972 158 SI WA SALLY 1971-12-04 18:00:00 TS -10.3980 122.354 main 120 120 O_____P__OP_O_ jtwc_sh SH061972 -10.5000 122.500 20 -1 -10.3352 122.121 1002 -10.5000 122.500 TC 20 -10.5301 122.455 1 -10.2000 122.400 TC 25 1002 7 225
1971337S07125 1972 158 SI WA SALLY 1971-12-04 21:00:00 TS -10.6532 122.097 main 156 147 P_____P__PP_P_ SH061972 -10.7575 122.235 22 -1 -10.5929 121.867 1002 -10.7575 122.235 TC 22 -10.7788 122.207 1 -10.4575 122.135 TC 25 1002 7 224
1971337S07125 1972 158 SI WA SALLY 1971-12-05 00:00:00 TS -10.8881 121.876 main 152 143 O_____P__OO_O_ jtwc_sh SH061972 -11.0000 122.000 25 -1 -10.8289 121.657 1002 -11.0000 122.000 TC 25 -11.0000 122.000 1 -10.7000 121.900 TC 25 1002 6 222
1971337S07125 1972 158 SI WA SALLY 1971-12-05 01:00:00 TS -10.9599 121.816 1002 bom main 150 141 P_____O__PP_P_ SH061972 -11.0776 121.933 26 -1 -10.9000 121.600 1002 -11.0776 121.933 TC 26 -11.0658 121.945 1 -10.7750 121.836 TC 25 1001 5 217
1971337S07125 1972 158 SI WA SALLY 1971-12-05 03:00:00 TS -11.0918 121.714 main 148 148 P_____P__PP_P_ SH061972 -11.2225 121.820 30 -1 -11.0254 121.510 1001 -11.2225 121.820 TC 30 -11.1867 121.853 1 -10.9150 121.727 TC 25 1001 4 215
1971337S07125 1972 158 SI WA SALLY 1971-12-05 06:00:00 TS -11.2605 121.602 main 157 157 O_____P__OP_O_ jtwc_sh SH061972 -11.4000 121.700 35 0 -11.1883 121.419 1001 -11.4000 121.700 TC 35 -11.3448 121.747 1 -11.1000 121.600 TC 25 1001 4 211
1971337S07125 1972 158 SI WA SALLY 1971-12-05 09:00:00 TS -11.3939 121.526 main 160 160 P_____P__PP_P_ SH061972 -11.5150 121.635 37 0 -11.3295 121.362 1001 -11.5150 121.635 TC 37 -11.4805 121.668 1 -11.2575 121.485 TC 25 1001 3 208
1971337S07125 1972 158 SI WA SALLY 1971-12-05 12:00:00 TS -11.5097 121.469 main 169 169 O_____P__OO_O_ jtwc_sh SH061972 -11.6000 121.600 40 0 -11.4582 121.316 1001 -11.6000 121.600 TC 40 -11.6000 121.600 1 -11.4000 121.400 TC 25 1001 3 204
1971337S07125 1972 158 SI WA SALLY 1971-12-05 13:00:00 TS -11.5515 121.451 1001 bom main 179 174 P_____O__PP_P_ SH061972 -11.6333 121.586 38 0 -11.5000 121.300 1001 -11.6333 121.586 TC 38 -11.6388 121.577 1 -11.4526 121.380 TC 25 1000 3 204
1971337S07125 1972 158 SI WA SALLY 1971-12-05 15:00:00 TS -11.6351 121.418 main 174 174 P_____P__PP_P_ SH061972 -11.7000 121.557 35 0 -11.5890 121.268 1000 -11.7000 121.557 TC 35 -11.7103 121.534 1 -11.5575 121.350 TC 27 1000 3 202
1971337S07125 1972 158 SI WA SALLY 1971-12-05 18:00:00 TS -11.7552 121.363 main 194 189 O_____P__OP_O_ jtwc_sh SH061972 -11.8000 121.500 30 -1 -11.7162 121.221 1000 -11.8000 121.500 TC 30 -11.8074 121.472 1 -11.7000 121.300 TC 30 1000 3 210
1971337S07125 1972 158 SI WA SALLY 1971-12-05 21:00:00 TS -11.8661 121.286 main 199 194 P_____P__PP_P_ SH061972 -11.9000 121.415 25 -1 -11.8386 121.155 1000 -11.9000 121.415 TC 25 -11.9009 121.400 1 -11.8000 121.215 TC 30 1000 3 220
1971337S07125 1972 158 SI WA SALLY 1971-12-06 00:00:00 TS -11.9766 121.175 main 205 201 O_____P__OO_O_ jtwc_sh SH061972 -12.0000 121.300 20 -1 -11.9595 121.048 1000 -12.0000 121.300 TC 20 -12.0000 121.300 1 20 -11.9000 121.100 TC 30 1000 3 225
1971337S07125 1972 158 SI WA SALLY 1971-12-06 01:00:00 TS -12.0153 121.132 1000 bom main 201 201 P_____O__PP_P_ SH061972 -12.0307 121.258 20 -1 -12.0000 121.000 1000 -12.0307 121.258 TC 20 -12.0383 121.265 1 20 -11.9469 121.061 TC 31 999 4 229
1971337S07125 1972 158 SI WA SALLY 1971-12-06 03:00:00 TS -12.0947 121.032 main 208 208 P_____P__PP_P_ SH061972 -12.0925 121.165 22 -1 -12.0834 120.876 997 -12.0925 121.165 TC 22 -12.1177 121.186 1 20 -12.0500 120.973 TC 35 997 4 234
1971337S07125 1972 158 SI WA SALLY 1971-12-06 06:00:00 TS -12.2180 120.849 main 215 215 O_____P__OP_O_ jtwc_sh SH061972 -12.2000 121.000 25 -1 -12.2084 120.646 993 -12.2000 121.000 TC 25 -12.2422 121.040 1 20 -12.2000 120.800 TC 40 995 5 237
1971337S07125 1972 158 SI WA SALLY 1971-12-06 09:00:00 TS -12.3472 120.640 main 224 224 P_____P__PP_P_ SH061972 -12.3499 120.837 27 -1 -12.3334 120.379 989 -12.3499 120.837 TC 27 -12.3707 120.849 1 20 -12.3000 120.572 TC 45 991 5 241
1971337S07125 1972 158 SI WA SALLY 1971-12-06 12:00:00 TS -12.4764 120.383 main 246 246 O_____P__OO_O_ jtwc_sh SH061972 -12.5000 120.600 30 -1 -12.4583 120.095 986 -12.5000 120.600 TC 30 -12.5000 120.600 1 20 -12.4000 120.300 TC 50 987 6 245
1971337S07125 1972 158 SI WA SALLY 1971-12-06 13:00:00 TS -12.5144 120.278 985 bom main 247 247 P_____O__PP_P_ SH061972 -12.5365 120.487 30 -1 -12.5000 120.000 985 -12.5365 120.487 TC 30 -12.5320 120.485 1 23 -12.4469 120.203 TC 51 985 7 252
1971337S07125 1972 158 SI WA SALLY 1971-12-06 15:00:00 TS -12.5848 120.050 main 263 263 P_____P__PP_P_ SH061972 -12.6001 120.222 32 -1 -12.5650 119.809 982 -12.6001 120.222 TC 32 -12.5931 120.226 1 31 -12.5500 120.000 TC 55 983 7 253
1971337S07125 1972 158 SI WA SALLY 1971-12-06 18:00:00 TS -12.6930 119.691 main 282 282 O_____P__OP_O_ jtwc_sh SH061972 -12.7000 119.800 35 0 -12.6621 119.516 978 -12.7000 119.800 TC 35 -12.6908 119.805 1 42 -12.7000 119.700 TC 60 980 7 252
1971337S07125 1972 158 SI WA SALLY 1971-12-06 21:00:00 TS -12.8089 119.353 main 303 303 P_____P__PP_P_ SH061972 -12.8200 119.398 37 0 -12.7781 119.232 974 -12.8200 119.398 TC 37 -12.8181 119.407 1 53 -12.7850 119.435 TC 65 976 7 245
1971337S07125 1972 158 SI WA SALLY 1971-12-07 00:00:00 TS -12.9725 119.079 main 335 335 O_____P__OO_O_ jtwc_sh SH061972 -13.0000 119.100 40 0 -12.9349 118.976 971 -13.0000 119.100 TC 40 -13.0000 119.100 4 65 -12.9000 119.200 TC 70 972 6 234
1971337S07125 1972 158 SI WA SALLY 1971-12-07 01:00:00 TS -13.0455 119.014 970 bom main 339 339 P_____O__PP_P_ SH061972 -13.0802 119.046 40 0 -13.0000 118.900 970 -13.0802 119.046 TC 40 -13.0826 119.043 4 61 -12.9636 119.125 TC 70 971 6 214
1971337S07125 1972 158 SI WA SALLY 1971-12-07 03:00:00 TS -13.2165 118.911 main 364 364 P_____P__PP_P_ SH061972 -13.2699 118.997 40 0 -13.1521 118.740 969 -13.2699 118.997 TC 40 -13.2712 118.970 4 53 -13.1200 118.985 TC 72 970 6 203
1971337S07125 1972 158 SI WA SALLY 1971-12-07 06:00:00 TS -13.5161 118.809 main 399 399 O_____P__OP_O_ jtwc_sh SH061972 -13.6000 119.000 40 0 -13.4243 118.531 967 -13.6000 119.000 TC 40 -13.5971 118.937 4 42 -13.4000 118.800 TC 75 968 7 195
1971337S07125 1972 158 SI WA SALLY 1971-12-07 09:00:00 TS -13.8407 118.733 main 434 434 P_____P__PP_P_ SH061972 -13.9500 118.992 37 0 -13.7382 118.379 966 -13.9500 118.992 TC 37 -13.9495 118.961 4 31 -13.6850 118.613 TC 77 966 7 189
1971337S07125 1972 158 SI WA SALLY 1971-12-07 12:00:00 TS -14.1802 118.701 main 476 476 O_____P__OO_O_ jtwc_sh SH061972 -14.3000 119.000 35 0 -14.0813 118.304 965 -14.3000 119.000 TC 35 -14.3000 119.000 1 20 -14.0000 118.500 TC 80 965 7 186
1971337S07125 1972 158 SI WA SALLY 1971-12-07 13:00:00 TS -14.2897 118.694 965 bom main 487 482 P_____O__PP_P_ SH061972 -14.4057 119.000 34 0 -14.2000 118.300 965 -14.4057 119.000 TC 34 -14.4009 118.982 1 20 -14.1109 118.489 TC 80 964 7 0
1971337S07125 1972 158 SI WA SALLY 1971-12-07 15:00:00 TS -14.5092 118.697 main 482 463 P_____P__PP_P_ SH061972 -14.6075 119.000 32 -1 -14.4407 118.323 964 -14.6075 119.000 TC 32 -14.5989 118.945 1 21 -14.3425 118.505 TC 82 964 7 176
1971337S07125 1972 158 SI WA SALLY 1971-12-07 18:00:00 TS -14.8426 118.737 main 463 430 O_____P__OP_O_ jtwc_sh SH061972 -14.9000 119.000 30 -1 -14.8209 118.434 962 -14.9000 119.000 TC 30 -14.8922 118.903 1 22 -14.7000 118.600 TC 85 963 7 172
1971337S07125 1972 158 SI WA SALLY 1971-12-07 21:00:00 TS -15.1770 118.800 main 430 404 P_____P__PP_P_ SH061972 -15.1925 118.963 27 -1 -15.2074 118.611 961 -15.1925 118.963 TC 27 -15.1894 118.910 1 23 -15.0500 118.728 TC 85 961 7 165
1971337S07125 1972 158 SI WA SALLY 1971-12-08 00:00:00 TS -15.5136 118.921 main 404 390 O_____P__OO_O_ jtwc_sh SH061972 -15.5000 119.000 25 -1 -15.5814 118.825 960 -15.5000 119.000 TC 25 -15.5000 119.000 1 25 -15.4000 118.900 TC 85 960 7 159
1971337S07125 1972 158 SI WA SALLY 1971-12-08 01:00:00 TS -15.6275 118.980 960 bom main 390 370 P_____O__PP_P_ SH061972 -15.6110 119.050 24 -1 -15.7000 118.900 960 -15.6110 119.050 TC 24 -15.6138 119.064 1 26 -15.5193 118.961 TC 85 959 8 151
1971337S07125 1972 158 SI WA SALLY 1971-12-08 03:00:00 TS -15.8549 119.120 main 365 322 P_____P__PP_P_ SH061972 -15.8425 119.197 22 -1 -15.9171 119.025 959 -15.8425 119.197 TC 22 -15.8482 119.229 1 28 -15.7575 119.093 TC 87 959 8 146
1971337S07125 1972 158 SI WA SALLY 1971-12-08 06:00:00 TS -16.1924 119.377 main 322 290 O_____P__OP_O_ jtwc_sh SH061972 -16.2000 119.500 20 -1 -16.2238 119.232 957 -16.2000 119.500 TC 20 -16.2081 119.539 1 32 -16.1000 119.300 TC 90 958 8 142
1971337S07125 1972 158 SI WA SALLY 1971-12-08 09:00:00 TS -16.5166 119.662 main 280 250 P_____P__PP_P_ SH061972 -16.5501 119.857 20 -1 -16.5161 119.460 956 -16.5501 119.857 TC 20 -16.5638 119.879 1 36 -16.4074 119.485 TC 92 956 8 139
1971337S07125 1972 158 SI WA SALLY 1971-12-08 12:00:00 TS -16.8339 119.952 main 240 236 O_____P__OO_O_ jtwc_sh SH061972 -16.9000 120.200 20 -1 -16.8036 119.711 955 -16.9000 120.200 TC 20 -16.9000 120.200 2 40 -16.7000 119.700 TC 95 955 8 140
1971337S07125 1972 158 SI WA SALLY 1971-12-08 13:00:00 TS -16.9441 120.039 955 bom main 236 209 P_____O__PP_P_ SH061972 -17.0245 120.284 19 -1 -16.9000 119.800 955 -17.0245 120.284 TC 19 -17.0090 120.284 2 38 -16.8000 119.789 TC 95 954 8 144
1971337S07125 1972 158 SI WA SALLY 1971-12-08 15:00:00 TS -17.1678 120.210 main 206 180 P_____P__PP_P_ SH061972 -17.2724 120.423 17 -1 -17.1186 119.995 954 -17.2724 120.423 TC 17 -17.2208 120.441 2 35 -17.0000 119.985 TC 95 954 8 143
1971337S07125 1972 158 SI WA SALLY 1971-12-08 18:00:00 TS -17.4844 120.461 main 170 145 O_____P__OP_O_ jtwc_sh SH061972 -17.6000 120.600 15 -1 -17.4470 120.308 952 -17.6000 120.600 TC 15 -17.5173 120.653 2 30 -17.3000 120.300 TC 95 953 8 141
1971337S07125 1972 158 SI WA SALLY 1971-12-08 21:00:00 TS -17.7623 120.720 main 138 107 P_____P__PP_P_ SH061972 -17.8375 120.815 15 -1 -17.7561 120.621 951 -17.8375 120.815 TC 15 -17.7802 120.838 2 25 -17.6225 120.615 TC 97 951 7 137
1971337S07125 1972 158 SI WA SALLY 1971-12-09 00:00:00 TS -17.9873 120.952 main 99 99 O_____P__OO_O_ jtwc_sh SH061972 -18.0000 121.000 15 -1 -18.0238 120.912 950 -18.0000 121.000 TC 15 -18.0000 121.000 1 20 -17.9000 120.900 TC 100 950 6 135
1971337S07125 1972 158 SI WA SALLY 1971-12-09 01:00:00 TS -18.0483 121.016 950 bom main 99 84 P_____O__PP_P_ SH061972 -18.0421 121.042 15 -1 -18.1000 121.000 950 4 -18.0421 121.042 TC 15 -18.0617 121.052 1 -17.9697 120.981 TC 100 950 5 134
1971337S07125 1972 158 SI WA SALLY 1971-12-09 03:00:00 TS -18.1494 121.128 main 84 53 P_____P__PP_P_ SH061972 -18.1075 121.108 15 -1 -18.2277 121.152 -18.1075 121.108 TC 15 -18.1680 121.147 1 -18.0799 121.123 TC 100 950 4 132
1971337S07125 1972 158 SI WA SALLY 1971-12-09 06:00:00 TS -18.2724 121.275 main 53 38 O_____P__OP_O_ jtwc_sh SH061972 -18.2000 121.200 15 -1 -18.3729 121.346 -18.2000 121.200 TC 15 -18.2948 121.273 1 -18.2000 121.300 TC 100 950 4 131
1971337S07125 1972 158 SI WA SALLY 1971-12-09 09:00:00 TS -18.3920 121.426 main 38 15 P_____P__PP_P_ SH061972 -18.3425 121.350 15 -1 -18.4730 121.509 -18.3425 121.350 TC 15 -18.3993 121.387 1 -18.3075 121.458 TC 100 950 4 130
1971337S07125 1972 158 SI WA SALLY 1971-12-09 12:00:00 TS -18.5024 121.566 main 15 0 O_____P__OO_O_ jtwc_sh SH061972 -18.5000 121.500 15 -1 -18.5404 121.645 -18.5000 121.500 TC 15 -18.5000 121.500 1 -18.4000 121.600 TC 100 950 3 132
1971337S07125 1972 158 SI WA SALLY 1971-12-09 15:00:00 TS -18.6146 121.687 main 0 0 P_____P__PP_P_ SH061972 -18.6575 121.600 17 -1 -18.5870 121.763 -18.6575 121.600 TC 17 -18.6453 121.621 1 -18.5075 121.757 TC 90 950 3 134
1971337S07125 1972 158 SI WA SALLY 1971-12-09 16:00:00 TS -18.6497 121.725 950 bom main 0 0 P_____O__PP_P_ SH061972 -18.7079 121.631 18 -1 -18.6000 121.800 950 -18.7079 121.631 TC 18 -18.6938 121.661 1 -18.5412 121.808 TC 86 950 3 133
1971337S07125 1972 158 SI WA SALLY 1971-12-09 18:00:00 TS -18.7159 121.795 main 0 0 O_____P__OP_O_ jtwc_sh SH061972 -18.8000 121.700 20 -1 -18.6379 121.834 952 -18.8000 121.700 TC 20 -18.7874 121.742 1 -18.6000 121.900 TC 80 951 3 131
1971337S07125 1972 158 SI WA SALLY 1971-12-09 21:00:00 TS -18.7981 121.907 main 0 0 P_____P__PP_P_ SH061972 -18.9225 121.842 22 -1 -18.6775 121.890 955 -18.9225 121.842 TC 22 -18.9109 121.868 1 -18.6650 122.000 TC 67 954 3 120
1971337S07125 1972 158 SI WA SALLY 1971-12-10 00:00:00 TS -18.8496 122.037 main 0 0 O_____P__OO_O_ jtwc_sh SH061972 -19.0000 122.000 25 -1 -18.6975 122.024 958 -19.0000 122.000 TC 25 -19.0000 122.000 2 40 -18.7000 122.100 TC 55 957 3 110
1971337S07125 1972 158 SI WA SALLY 1971-12-10 01:00:00 TS -18.8588 122.088 960 bom main 0 0 P_____O__PP_P_ SH061972 -19.0114 122.050 -1 -18.7000 122.100 960 -19.0114 122.050 TC -19.0168 122.047 2 -18.7057 122.147 TC 53 957 3 96
1971337S07125 1972 158 SI WA SALLY 1971-12-10 03:00:00 TS -18.8650 122.200 963 bom main 0 0 P_____O__PP_P_ SH061972 -19.0150 122.150 -1 -18.7000 122.300 963 -19.0150 122.150 TC -19.0359 122.143 2 -18.7075 122.250 TC 50 960 3 90
1971337S07125 1972 158 SI WA SALLY 1971-12-10 06:00:00 TS -18.8591 122.343 main 0 0 O_____P__OP_O_ jtwc_sh SH061972 -19.0000 122.300 -1 -18.6998 122.462 964 -19.0000 122.300 TC -19.0375 122.293 2 -18.7000 122.400 TC 45 963 2 88
1971337S07125 1972 158 SI WA SALLY 1971-12-10 09:00:00 TS -18.8549 122.458 main 0 0 P_____P__PP_P_ SH061972 -19.0000 122.450 -1 -18.6998 122.498 965 -19.0000 122.450 TC -19.0203 122.446 2 -18.7000 122.508 TC 42 964 2 88
1971337S07125 1972 158 SI WA SALLY 1971-12-10 12:00:00 TS -18.8500 122.566 main 0 0 O_____P__OO_O_ jtwc_sh SH061972 -19.0000 122.600 -1 -18.6999 122.495 966 -19.0000 122.600 TC -19.0000 122.600 2 -18.7000 122.600 TC 40 966 2 88
1971337S07125 1972 158 SI WA SALLY 1971-12-10 13:00:00 TS -18.8496 122.604 967 bom main 0 0 P_____O__PP_P_ SH061972 -19.0000 122.650 -1 -18.7000 122.500 967 -19.0000 122.650 TC -19.0000 122.651 2 -18.7000 122.633 TC 39 966 2 90
1971337S07125 1972 158 SI WA SALLY 1971-12-10 15:00:00 TS -18.8492 122.683 main 0 0 P_____P__PP_P_ SH061972 -19.0000 122.750 -1 -18.7001 122.533 968 -19.0000 122.750 TC -19.0000 122.754 2 -18.7000 122.700 TC 37 967 2 94
1971337S07125 1972 158 SI WA SALLY 1971-12-10 18:00:00 TS -18.8629 122.817 main 0 0 O_____P__OP_O_ jtwc_sh SH061972 -19.0000 122.900 -1 -18.7002 122.632 970 -19.0000 122.900 TC -19.0000 122.908 2 -18.7000 122.800 TC 35 969 3 98
1971337S07125 1972 158 SI WA SALLY 1971-12-10 21:00:00 TS -18.8891 122.976 main 0 0 P_____P__PP_P_ SH061972 -19.0000 123.058 -1 -18.7002 122.774 972 -19.0000 123.058 TC -19.0000 123.057 2 -18.7000 122.900 TC 32 971 3 101
1971337S07125 1972 158 SI WA SALLY 1971-12-11 00:00:00 TS -18.9250 123.143 main 0 0 O_____P__OO_O_ jtwc_sh SH061972 -19.0000 123.200 -1 -18.7001 122.942 974 -19.0000 123.200 TC -19.0000 123.200 2 -18.7000 123.000 TC 30 973 4 111
1971337S07125 1972 158 SI WA SALLY 1971-12-11 01:00:00 TS -18.9769 123.220 975 bom main 0 0 P_____O__PP___ SH061972 -19.0000 123.236 -1 -18.7000 123.000 975 -19.0000 123.236 TC -19.0000 123.241 2 TC 3 116
1971337S07125 1972 158 SI WA SALLY 1971-12-11 03:00:00 TS -18.9999 123.307 main 0 0 P________PP___ SH061972 -19.0000 123.300 -1 -19.0000 123.300 TC -18.9999 123.320 2 TC 2 97
1971337S07125 1972 158 SI WA SALLY 1971-12-11 06:00:00 TS -18.9999 123.412 main 0 0 O________OP___ jtwc_sh SH061972 -19.0000 123.400 -1 -19.0000 123.400 TC -18.9998 123.435 2 2 90
1971337S07125 1972 158 SI WA SALLY 1971-12-11 09:00:00 TS -19.0000 123.548 main 0 0 P________PP___ SH061972 -19.0000 123.543 -1 -19.0000 123.543 TC -18.9999 123.558 2 3 90
1971337S07125 1972 158 SI WA SALLY 1971-12-11 12:00:00 TS -19.0000 123.700 main 0 0 O________OO___ jtwc_sh SH061972 -19.0000 123.700 -1 -19.0000 123.700 TC -19.0000 123.700 2 3 90
1971337S07125 1972 158 SI WA SALLY 1971-12-11 15:00:00 TS -19.0000 123.847 main 0 0 P________PP___ SH061972 -18.9999 123.835 -1 -18.9999 123.835 TC -19.0000 123.870 2 3 90
1971337S07125 1972 158 SI WA SALLY 1971-12-11 18:00:00 TS -19.0000 124.021 main 0 0 O________OP___ jtwc_sh SH061972 -19.0000 124.000 -1 -19.0000 124.000 TC -18.9999 124.063 2 4 90
1971337S07125 1972 158 SI WA SALLY 1971-12-11 21:00:00 TS -19.0000 124.248 main 0 0 P________PP___ SH061972 -19.0000 124.235 -1 -19.0000 124.235 TC -18.9999 124.273 2 5 90
1971337S07125 1972 158 SI WA SALLY 1971-12-12 00:00:00 TS -19.0000 124.500 main 0 0 O________OO___ jtwc_sh SH061972 -19.0000 124.500 -1 -19.0000 124.500 TC -19.0000 124.500 1 15 5 90
1971337S07125 1972 158 SI WA SALLY 1971-12-12 03:00:00 TS -19.0000 124.745 main 0 0 P________PP___ SH061972 -19.0000 124.750 -1 -19.0000 124.750 TC -19.0000 124.736 1 5 90
1971337S07125 1972 158 SI WA SALLY 1971-12-12 06:00:00 TS -19.0000 124.995 main 0 0 O________OP___ jtwc_sh SH061972 -19.0000 125.000 -1 -19.0000 125.000 TC -19.0000 124.985 1 5 90
1971337S07125 1972 158 SI WA SALLY 1971-12-12 09:00:00 TS -19.0000 125.247 main 0 0 P________PP___ SH061972 -19.0000 125.250 -1 -19.0000 125.250 TC -19.0000 125.242 1 5 90
1971337S07125 1972 158 SI WA SALLY 1971-12-12 12:00:00 TS -19.0000 125.500 main 0 0 O________OO___ jtwc_sh SH061972 -19.0000 125.500 -1 -19.0000 125.500 TC -19.0000 125.500 1 5 90
1971337S07125 1972 158 SI WA SALLY 1971-12-12 15:00:00 TS -19.0000 125.751 main 0 0 P________PP___ SH061972 -19.0000 125.750 -1 -19.0000 125.750 TC -19.0001 125.754 1 5 90
1971337S07125 1972 158 SI WA SALLY 1971-12-12 18:00:00 TS -19.0001 126.002 main 0 0 O________OP___ jtwc_sh SH061972 -19.0000 126.000 -1 -19.0000 126.000 TC -19.0002 126.005 1 5 90
1971337S07125 1972 158 SI WA SALLY 1971-12-12 21:00:00 TS -19.0001 126.251 main 0 0 P________PP___ SH061972 -19.0001 126.250 -1 -19.0001 126.250 TC -19.0002 126.253 1 5 90
1971337S07125 1972 158 SI WA SALLY 1971-12-13 00:00:00 TS -19.0000 126.500 main 0 O________OO___ jtwc_sh SH061972 -19.0000 126.500 -1 -19.0000 126.500 TC -19.0000 126.500 1 25 5 90

IBTrACS Databaseについて

本データベースは、米国NOAAが公開する1842年以降の世界の熱帯低気圧のベストトラックデータアーカイブInternational Best Track Archive for Climate Stewardship (IBTrACS)を、ウェブで閲覧しやすい形式に変換したものです。

最終更新日:2021-11-26